Time;durP1;ratioP1;P1;durP2;ratioP2;P2;SDS_P1;SDS_P2;PMS_P1;PMS_P2;Temp;Humidity;BMP_temperature;BMP_pressure;BME280_temperature;BME280_humidity;BME280_pressure;Samples;Min_cycle;Max_cycle;Signal;HPM_P1;HPM_P2
2023/05/22 00:00:37;;;;;;;22.30;16.13;;;;;;;16.12;100.00;101544.34;10417194;28;20045;-70
2023/05/22 00:05:38;;;;;;;20.70;15.70;;;;;;;16.09;100.00;101545.75;10418997;28;20034;-72
2023/05/22 00:10:38;;;;;;;24.63;16.80;;;;;;;16.13;100.00;101568.25;10409999;28;20065;-72
2023/05/22 00:15:38;;;;;;;23.23;16.30;;;;;;;16.25;100.00;101574.41;10397053;28;20037;-72
2023/05/22 00:20:39;;;;;;;25.17;17.30;;;;;;;16.28;100.00;101554.38;10396515;28;20060;-71
2023/05/22 00:25:40;;;;;;;23.75;15.93;;;;;;;16.40;100.00;101550.50;10375810;28;20076;-71
2023/05/22 00:30:40;;;;;;;23.80;16.88;;;;;;;16.38;100.00;101550.78;10374847;28;20105;-72
2023/05/22 00:35:41;;;;;;;23.27;16.35;;;;;;;16.30;100.00;101540.22;10376952;28;20065;-72
2023/05/22 00:40:41;;;;;;;23.40;16.35;;;;;;;16.24;100.00;101525.47;10390599;28;20468;-70
2023/05/22 00:45:42;;;;;;;25.08;16.95;;;;;;;16.20;100.00;101524.38;10364344;28;20060;-69
2023/05/22 00:50:42;;;;;;;25.63;16.35;;;;;;;16.15;100.00;101510.50;10415418;28;20069;-73
2023/05/22 00:55:43;;;;;;;20.52;15.40;;;;;;;16.08;100.00;101499.66;10416717;28;20065;-72
2023/05/22 01:00:44;;;;;;;23.42;16.98;;;;;;;16.10;100.00;101499.34;10415005;28;20409;-72
2023/05/22 01:05:44;;;;;;;21.80;16.52;;;;;;;15.76;100.00;101447.13;10412874;28;20248;-71
2023/05/22 01:10:45;;;;;;;24.38;17.60;;;;;;;16.01;100.00;101517.69;10416130;28;20033;-72
2023/05/22 01:16:24;;;;;;;28.92;18.95;;;;;;;15.96;100.00;101523.22;10414756;28;20040;-71
2023/05/22 01:21:32;;;;;;;23.52;17.63;;;;;;;15.94;100.00;101493.78;10408676;28;20079;-72
2023/05/22 01:26:48;;;;;;;26.90;19.50;;;;;;;15.94;100.00;101481.84;10413277;28;20405;-70
2023/05/22 01:31:48;;;;;;;25.13;16.15;;;;;;;15.85;100.00;101472.38;10397010;28;20049;-72
2023/05/22 01:36:49;;;;;;;25.42;18.80;;;;;;;15.86;100.00;101486.00;10397196;28;20509;-70
2023/05/22 01:41:50;;;;;;;28.77;19.17;;;;;;;15.78;100.00;101481.00;10413729;28;20045;-70
2023/05/22 01:46:50;;;;;;;27.20;18.42;;;;;;;15.72;100.00;101482.09;10395242;28;20033;-70
2023/05/22 01:51:52;;;;;;;29.50;18.25;;;;;;;15.68;100.00;101483.72;10374411;28;20041;-70
2023/05/22 01:56:58;;;;;;;25.70;18.40;;;;;;;15.68;100.00;101472.59;10372917;28;20034;-72
2023/05/22 02:02:04;;;;;;;29.13;20.50;;;;;;;15.60;100.00;101453.72;10372423;28;20037;-70
2023/05/22 02:07:05;;;;;;;26.50;18.25;;;;;;;15.63;100.00;101461.50;10377564;28;20093;-70
2023/05/22 02:12:06;;;;;;;29.02;19.75;;;;;;;15.60;100.00;101460.09;10415505;28;20033;-71
2023/05/22 02:17:07;;;;;;;24.67;18.25;;;;;;;15.55;100.00;101443.44;10400253;28;20036;-71
2023/05/22 02:22:12;;;;;;;26.00;18.40;;;;;;;15.56;100.00;101453.41;10420686;28;20572;-71
2023/05/22 02:27:12;;;;;;;25.80;18.10;;;;;;;15.54;100.00;101450.94;10422863;28;20038;-70
2023/05/22 02:32:13;;;;;;;25.90;17.60;;;;;;;15.49;100.00;101442.59;10404092;28;20045;-70
2023/05/22 02:37:14;;;;;;;26.02;17.88;;;;;;;15.53;100.00;101460.34;10395741;28;20034;-71
2023/05/22 02:42:15;;;;;;;25.23;19.17;;;;;;;15.45;100.00;101435.91;10419316;28;20053;-70
2023/05/22 02:47:15;;;;;;;28.33;18.55;;;;;;;15.47;100.00;101446.75;10420972;28;20029;-70
2023/05/22 02:52:16;;;;;;;28.20;20.08;;;;;;;15.43;100.00;101437.31;10419551;28;20047;-70
2023/05/22 02:57:16;;;;;;;26.27;19.38;;;;;;;15.51;100.00;101442.31;10419768;28;20060;-72
2023/05/22 03:02:18;;;;;;;29.38;20.45;;;;;;;15.54;100.00;101455.63;10419914;28;20042;-70
2023/05/22 03:07:20;;;;;;;27.92;18.92;;;;;;;15.54;100.00;101442.63;10421474;28;20115;-70
2023/05/22 03:12:20;;;;;;;29.83;21.50;;;;;;;15.56;100.00;101442.31;10422014;28;20132;-70
2023/05/22 03:17:21;;;;;;;29.70;20.58;;;;;;;15.56;100.00;101436.78;10421888;28;20034;-70
2023/05/22 03:22:21;;;;;;;32.08;20.92;;;;;;;15.61;100.00;101449.84;10418894;28;20131;-70
2023/05/22 03:27:22;;;;;;;35.75;21.45;;;;;;;15.60;100.00;101437.06;10417669;28;20033;-70
2023/05/22 03:32:23;;;;;;;30.08;20.65;;;;;;;15.63;100.00;101444.84;10417149;28;20038;-70
2023/05/22 03:37:23;;;;;;;30.05;21.23;;;;;;;15.62;100.00;101448.72;10401736;28;20469;-70
2023/05/22 03:42:24;;;;;;;31.25;20.73;;;;;;;15.60;100.00;101437.06;10418767;28;20057;-70
2023/05/22 03:47:24;;;;;;;28.40;20.45;;;;;;;15.61;100.00;101441.53;10401789;28;20030;-70
2023/05/22 03:52:25;;;;;;;27.98;20.02;;;;;;;15.53;100.00;101438.16;10416229;28;20040;-70
2023/05/22 03:57:25;;;;;;;27.35;18.98;;;;;;;15.60;100.00;101437.88;10415901;28;20088;-70
2023/05/22 04:02:28;;;;;;;28.75;20.80;;;;;;;15.28;100.00;101385.41;10416928;28;20037;-69
2023/05/22 04:07:29;;;;;;;30.23;20.45;;;;;;;15.61;100.00;101435.97;10416977;28;20468;-70
2023/05/22 04:12:29;;;;;;;28.95;20.92;;;;;;;15.65;100.00;101434.31;10419595;28;20055;-70
2023/05/22 04:17:32;;;;;;;28.55;19.33;;;;;;;15.68;100.00;101419.88;10417280;28;20476;-70
2023/05/22 04:22:32;;;;;;;30.20;20.42;;;;;;;15.71;100.00;101416.56;10399411;28;20052;-70
2023/05/22 04:27:33;;;;;;;29.80;20.15;;;;;;;15.72;100.00;101407.97;10407681;28;20049;-70
2023/05/22 04:32:35;;;;;;;30.20;19.92;;;;;;;15.78;100.00;101416.31;10376685;28;20041;-71
2023/05/22 04:37:35;;;;;;;26.50;19.15;;;;;;;15.79;100.00;101406.84;10377206;28;20516;-70
2023/05/22 04:42:37;;;;;;;27.13;19.98;;;;;;;15.91;100.00;101416.56;10358454;28;20045;-70
2023/05/22 04:47:40;;;;;;;31.65;20.92;;;;;;;15.87;100.00;101415.47;10358249;28;20065;-70
2023/05/22 04:52:40;;;;;;;26.05;19.98;;;;;;;15.95;100.00;101450.19;10368208;28;20167;-70
2023/05/22 04:57:43;;;;;;;28.48;20.83;;;;;;;16.04;100.00;101453.25;10381665;28;20068;-70
2023/05/22 05:02:43;;;;;;;31.98;21.13;;;;;;;16.08;100.00;101457.13;10415692;28;20065;-71
2023/05/22 05:07:46;;;;;;;30.17;20.38;;;;;;;16.15;100.00;101441.03;10416828;28;20083;-70
2023/05/22 05:12:47;;;;;;;26.85;19.77;;;;;;;16.22;100.00;101455.47;10415601;28;20529;-70
2023/05/22 05:17:47;;;;;;;30.20;19.08;;;;;;;16.15;100.00;101446.59;10416471;28;20029;-70
2023/05/22 05:22:48;;;;;;;35.28;21.85;;;;;;;16.14;100.00;101447.69;10413018;28;20064;-72
2023/05/22 05:27:48;;;;;;;30.98;19.95;;;;;;;16.10;100.00;101457.69;10396828;28;20053;-71
2023/05/22 05:32:49;;;;;;;31.17;21.15;;;;;;;16.02;100.00;101444.34;10413606;28;20117;-70
2023/05/22 05:37:50;;;;;;;28.73;20.65;;;;;;;15.97;100.00;101459.06;10415732;28;20041;-70
2023/05/22 05:42:51;;;;;;;32.45;21.13;;;;;;;15.94;100.00;101460.47;10413838;28;20339;-71
2023/05/22 05:47:51;;;;;;;30.98;20.42;;;;;;;15.96;100.00;101456.56;10414542;28;20121;-70
2023/05/22 05:52:52;;;;;;;31.75;20.35;;;;;;;16.00;100.00;101457.69;10414384;28;20038;-70
2023/05/22 05:57:53;;;;;;;32.70;19.95;;;;;;;15.98;100.00;101444.09;10415392;28;20033;-71
2023/05/22 06:02:53;;;;;;;28.70;18.88;;;;;;;16.04;100.00;101442.13;10413586;28;20056;-70
2023/05/22 06:07:57;;;;;;;28.70;16.73;;;;;;;16.07;100.00;101447.16;10416379;28;20044;-71
2023/05/22 06:12:57;;;;;;;24.25;16.65;;;;;;;16.10;100.00;101441.88;10411854;28;20562;-70
2023/05/22 06:17:57;;;;;;;26.98;18.05;;;;;;;16.16;100.00;101453.81;10373004;28;20077;-70
2023/05/22 06:22:58;;;;;;;27.95;17.90;;;;;;;15.78;100.00;101377.44;10350303;28;20038;-70
2023/05/22 06:27:59;;;;;;;27.40;17.17;;;;;;;16.11;100.00;101453.81;10351793;28;20046;-70
2023/05/22 06:33:00;;;;;;;23.50;16.67;;;;;;;15.95;100.00;101450.19;10354781;28;20341;-70
2023/05/22 06:38:00;;;;;;;22.65;15.35;;;;;;;15.95;100.00;101486.28;10373151;28;20096;-70
2023/05/22 06:43:01;;;;;;;31.85;15.85;;;;;;;15.86;100.00;101474.91;10372842;28;20057;-70
2023/05/22 06:48:01;;;;;;;22.45;15.30;;;;;;;15.76;100.00;101480.44;10373400;28;20045;-70
2023/05/22 06:53:02;;;;;;;23.55;15.55;;;;;;;15.75;100.00;101484.34;10371759;28;20038;-70
2023/05/22 06:58:02;;;;;;;25.15;15.43;;;;;;;15.25;100.00;101408.13;10373394;28;20034;-68
2023/05/22 07:03:05;;;;;;;22.10;15.75;;;;;;;15.80;100.00;101503.75;10374711;28;20148;-69
2023/05/22 07:08:07;;;;;;;20.65;14.52;;;;;;;15.88;100.00;101510.72;10417421;28;20042;-70
2023/05/22 07:13:07;;;;;;;20.25;14.35;;;;;;;15.96;100.00;101501.84;10419824;28;20044;-70
2023/05/22 07:18:09;;;;;;;20.58;14.68;;;;;;;16.06;100.00;101507.44;10420971;28;20037;-71
2023/05/22 07:23:09;;;;;;;20.05;13.13;;;;;;;16.26;100.00;101516.88;10419154;28;20048;-70
2023/05/22 07:28:10;;;;;;;18.48;13.43;;;;;;;16.38;100.00;101513.84;10411817;28;20049;-70
2023/05/22 07:33:11;;;;;;;19.65;13.90;;;;;;;16.46;100.00;101513.28;10379962;28;20443;-70
2023/05/22 07:38:11;;;;;;;18.88;12.73;;;;;;;16.63;100.00;101521.31;10378609;28;20073;-70
2023/05/22 07:43:14;;;;;;;20.40;12.85;;;;;;;16.81;100.00;101517.16;10379469;28;20042;-70
2023/05/22 07:48:14;;;;;;;18.42;12.35;;;;;;;16.99;100.00;101508.22;10376423;28;20034;-70
2023/05/22 07:53:15;;;;;;;18.95;12.07;;;;;;;17.06;100.00;101503.19;10378105;28;20045;-70
2023/05/22 07:58:15;;;;;;;18.80;11.18;;;;;;;17.33;100.00;101513.13;10379259;28;20045;-71
2023/05/22 08:03:16;;;;;;;18.80;11.52;;;;;;;17.20;100.00;101495.09;10401170;28;20037;-71
2023/05/22 08:08:16;;;;;;;20.80;10.32;;;;;;;17.18;100.00;101493.69;10342754;28;20057;-70
2023/05/22 08:13:17;;;;;;;17.75;11.32;;;;;;;17.17;100.00;101492.03;10337826;28;20076;-70
2023/05/22 08:18:18;;;;;;;21.45;11.52;;;;;;;17.19;100.00;101478.66;10355334;28;20043;-71
2023/05/22 08:23:19;;;;;;;15.02;10.10;;;;;;;17.44;100.00;101486.91;10332554;28;20050;-70
2023/05/22 08:28:19;;;;;;;16.30;11.30;;;;;;;17.69;100.00;101473.97;10371905;28;20069;-71
2023/05/22 08:33:20;;;;;;;22.50;11.32;;;;;;;17.84;100.00;101468.34;10375797;28;20065;-70
2023/05/22 08:38:20;;;;;;;22.38;10.90;;;;;;;17.89;100.00;101464.69;10353602;28;20038;-70
2023/05/22 08:43:21;;;;;;;18.27;10.93;;;;;;;17.78;100.00;101469.47;10336523;28;20197;-70
2023/05/22 08:48:22;;;;;;;16.15;11.20;;;;;;;17.92;100.00;101473.28;10363648;28;20409;-71
2023/05/22 08:53:26;;;;;;;19.23;9.63;;;;;;;17.95;100.00;101474.66;10353624;28;20042;-70
2023/05/22 08:58:26;;;;;;;19.70;11.32;;;;;;;18.10;100.00;101470.94;10337065;28;20507;-71
2023/05/22 09:03:31;;;;;;;18.15;10.80;;;;;;;18.03;100.00;101468.47;10341292;28;20038;-70
2023/05/22 09:08:32;;;;;;;24.30;12.20;;;;;;;17.87;100.00;101473.31;10375488;28;20461;-71
2023/05/22 09:13:32;;;;;;;16.42;9.60;;;;;;;17.68;100.00;101470.34;10373518;28;20049;-70
2023/05/22 09:18:33;;;;;;;15.85;10.90;;;;;;;17.53;100.00;101474.06;10371713;28;20050;-70
2023/05/22 09:23:33;;;;;;;24.83;11.88;;;;;;;17.33;100.00;101479.72;10372717;28;20041;-70
2023/05/22 09:28:35;;;;;;;19.27;10.52;;;;;;;17.16;100.00;101474.50;10353709;28;20101;-70
2023/05/22 09:33:36;;;;;;;27.75;11.30;;;;;;;17.10;100.00;101487.59;10358158;28;20103;-70
2023/05/22 09:38:37;;;;;;;24.80;11.40;;;;;;;16.96;100.00;101486.53;10374628;28;20113;-70
2023/05/22 09:43:37;;;;;;;21.38;10.35;;;;;;;16.96;100.00;101485.72;10374546;28;20461;-71
2023/05/22 09:48:38;;;;;;;20.58;10.13;;;;;;;17.00;100.00;101497.94;10412836;28;20069;-70
2023/05/22 09:53:38;;;;;;;26.23;12.23;;;;;;;16.53;100.00;101402.63;10415210;28;20045;-70
2023/05/22 09:58:39;;;;;;;31.20;13.00;;;;;;;17.19;100.00;101473.94;10397313;28;20041;-71
2023/05/22 10:03:40;;;;;;;31.52;11.80;;;;;;;17.43;100.00;101473.28;10397329;28;20095;-70
2023/05/22 10:08:42;;;;;;;25.70;11.45;;;;;;;17.73;100.00;101461.13;10397395;28;20068;-70
2023/05/22 10:13:46;;;;;;;26.55;10.65;;;;;;;18.12;100.00;101468.69;10379836;28;20060;-70
2023/05/22 10:18:47;;;;;;;20.70;10.68;;;;;;;18.46;100.00;101467.81;10413790;28;20184;-71
2023/05/22 10:23:48;;;;;;;24.65;11.00;;;;;;;18.91;100.00;101462.94;10395678;28;20040;-71
2023/05/22 10:29:10;;;;;;;20.55;11.05;;;;;;;19.20;100.00;101459.25;10358739;28;20033;-70
2023/05/22 10:34:14;;;;;;;20.05;11.13;;;;;;;19.13;100.00;101443.69;10377745;28;20033;-70
2023/05/22 10:39:23;;;;;;;22.85;11.70;;;;;;;19.24;100.00;101449.13;10371350;28;20049;-70
2023/05/22 10:44:23;;;;;;;18.73;11.55;;;;;;;19.28;100.00;101433.44;10367620;28;20097;-71
2023/05/22 10:49:24;;;;;;;23.10;12.48;;;;;;;19.74;100.00;101435.59;10359381;28;20068;-71
2023/05/22 10:54:44;;;;;;;20.92;12.57;;;;;;;20.18;100.00;101417.59;10358040;28;20053;-70
2023/05/22 10:59:47;;;;;;;20.25;12.32;;;;;;;20.52;100.00;101414.44;10395429;28;20482;-70
2023/05/22 11:04:48;;;;;;;16.23;11.98;;;;;;;21.23;100.00;101407.72;10402380;28;20057;-70
2023/05/22 11:09:48;;;;;;;15.88;11.13;;;;;;;22.08;100.00;101399.59;10387517;28;20030;-70
2023/05/22 11:14:49;;;;;;;15.80;12.13;;;;;;;22.22;100.00;101393.88;10399240;28;20030;-70
2023/05/22 11:20:04;;;;;;;22.27;12.40;;;;;;;21.63;100.00;101399.59;10399731;28;20050;-70
2023/05/22 11:25:15;;;;;;;17.55;13.40;;;;;;;21.29;100.00;101395.25;10371865;28;20065;-72
2023/05/22 11:30:16;;;;;;;17.38;12.57;;;;;;;21.21;100.00;101387.59;10363542;28;20457;-71
2023/05/22 11:35:22;;;;;;;16.15;12.90;;;;;;;22.00;100.00;101386.34;10320779;28;20089;-70
2023/05/22 11:40:24;;;;;;;16.83;12.27;;;;;;;22.67;100.00;101389.03;10342363;28;20063;-70
2023/05/22 11:45:25;;;;;;;16.27;12.38;;;;;;;22.74;100.00;101386.59;10390335;28;20108;-71
2023/05/22 11:50:25;;;;;;;16.70;12.82;;;;;;;22.87;100.00;101370.78;10393406;28;20084;-71
2023/05/22 11:55:26;;;;;;;16.42;12.55;;;;;;;23.41;100.00;101370.56;10379979;28;20044;-69
2023/05/22 12:00:28;;;;;;;15.20;12.48;;;;;;;23.65;100.00;101367.28;10394960;28;20045;-70
2023/05/22 12:05:30;;;;;;;15.60;12.75;;;;;;;23.78;100.00;101348.59;10403200;28;20041;-69
2023/05/22 12:10:31;;;;;;;18.38;12.63;;;;;;;24.12;100.00;101350.53;10379838;28;20060;-70
2023/05/22 12:15:31;;;;;;;17.33;12.48;;;;;;;24.22;100.00;101334.44;10407545;28;20048;-70
2023/05/22 12:20:32;;;;;;;18.92;13.13;;;;;;;25.51;100.00;101325.59;10417141;28;20053;-70
2023/05/22 12:25:35;;;;;;;14.00;11.50;;;;;;;26.89;100.00;101298.94;10415449;28;20037;-69
2023/05/22 12:30:40;;;;;;;15.15;11.70;;;;;;;27.84;100.00;101292.84;10415668;28;20044;-69
2023/05/22 12:35:40;;;;;;;14.10;12.00;;;;;;;27.55;100.00;101298.53;10416294;28;20060;-71
2023/05/22 12:40:41;;;;;;;16.73;12.45;;;;;;;27.45;100.00;101310.38;10399829;28;20033;-69
2023/05/22 12:45:42;;;;;;;15.07;12.27;;;;;;;27.93;100.00;101321.84;10376735;28;20168;-68
2023/05/22 12:50:43;;;;;;;16.95;12.20;;;;;;;28.25;100.00;101299.22;10361822;28;20549;-68
2023/05/22 12:55:43;;;;;;;14.70;12.43;;;;;;;27.86;100.00;101311.13;10389487;28;20060;-68
2023/05/22 13:00:44;;;;;;;18.15;13.57;;;;;;;28.03;100.00;101309.13;10388346;28;20056;-68
2023/05/22 13:05:44;;;;;;;14.52;13.02;;;;;;;28.72;100.00;101296.38;10370997;28;20052;-69
2023/05/22 13:10:45;;;;;;;17.38;13.68;;;;;;;29.04;100.00;101286.94;10389287;28;20042;-66
2023/05/22 13:15:45;;;;;;;22.33;13.98;;;;;;;29.16;99.68;101282.00;10393653;28;20048;-68
2023/05/22 13:20:46;;;;;;;14.85;13.35;;;;;;;28.80;97.83;101279.53;10376751;28;20076;-65
2023/05/22 13:25:46;;;;;;;15.27;12.95;;;;;;;29.61;96.71;101276.03;10349935;28;20051;-69
2023/05/22 13:30:47;;;;;;;16.40;13.15;;;;;;;30.14;93.28;101276.22;10371901;28;20065;-66
2023/05/22 13:35:47;;;;;;;16.40;14.35;;;;;;;30.15;89.97;101269.34;10388994;28;20041;-68
2023/05/22 13:40:48;;;;;;;18.90;14.75;;;;;;;28.32;92.09;101235.09;10382434;28;20049;-69
2023/05/22 13:45:48;;;;;;;15.45;13.77;;;;;;;26.89;99.52;101304.56;10366666;28;20097;-67
2023/05/22 13:50:49;;;;;;;19.55;15.27;;;;;;;25.18;100.00;101307.44;10343918;28;20073;-68
2023/05/22 13:55:50;;;;;;;18.30;14.35;;;;;;;24.21;100.00;101339.25;10345432;28;20050;-67
2023/05/22 14:00:50;;;;;;;18.25;15.95;;;;;;;23.75;100.00;101344.44;10377343;28;20568;-66
2023/05/22 14:05:51;;;;;;;20.30;17.30;;;;;;;23.43;100.00;101351.41;10366961;28;20041;-68
2023/05/22 14:10:52;;;;;;;20.40;15.80;;;;;;;23.24;100.00;101362.13;10360804;28;20049;-67
2023/05/22 14:15:52;;;;;;;26.48;18.10;;;;;;;23.46;100.00;101359.19;10379456;28;20441;-65
2023/05/22 14:20:53;;;;;;;23.42;17.35;;;;;;;24.16;100.00;101359.09;10357587;28;20080;-68
2023/05/22 14:25:53;;;;;;;21.15;17.65;;;;;;;24.63;100.00;101345.06;10330148;28;20034;-68
2023/05/22 14:30:54;;;;;;;23.38;17.25;;;;;;;23.97;100.00;101357.50;10341604;28;20101;-68
2023/05/22 14:35:54;;;;;;;23.02;17.58;;;;;;;23.31;100.00;101368.91;10330800;28;20035;-66
2023/05/22 14:40:55;;;;;;;21.17;14.23;;;;;;;23.00;100.00;101371.78;10353703;28;20125;-67
2023/05/22 14:45:56;;;;;;;18.73;14.02;;;;;;;23.53;100.00;101365.13;10378773;28;20051;-67
2023/05/22 14:50:57;;;;;;;24.75;14.77;;;;;;;23.81;100.00;101361.16;10396080;28;20057;-68
2023/05/22 14:55:57;;;;;;;17.00;14.63;;;;;;;23.24;100.00;101360.16;10371719;28;20045;-67
2023/05/22 15:00:58;;;;;;;21.67;15.90;;;;;;;22.88;100.00;101366.84;10359378;28;20052;-69
2023/05/22 15:05:58;;;;;;;19.02;13.57;;;;;;;22.85;100.00;101358.22;10390159;28;20065;-68
2023/05/22 15:10:59;;;;;;;21.70;14.38;;;;;;;23.62;100.00;101359.50;10369627;28;21171;-68
2023/05/22 15:15:59;;;;;;;19.33;13.40;;;;;;;24.85;100.00;101345.94;10358518;28;20038;-68
2023/05/22 15:21:00;;;;;;;20.60;14.65;;;;;;;24.13;100.00;101295.09;10371887;28;20096;-69
2023/05/22 15:26:00;;;;;;;22.15;15.10;;;;;;;24.34;100.00;101346.63;10351408;28;20038;-68
2023/05/22 15:31:01;;;;;;;18.73;13.43;;;;;;;24.97;100.00;101332.78;10372585;28;20041;-67
2023/05/22 15:36:01;;;;;;;20.50;13.57;;;;;;;25.13;100.00;101338.63;10392262;28;20041;-69
2023/05/22 15:41:02;;;;;;;23.25;14.48;;;;;;;25.32;100.00;101286.63;10389628;28;20327;-72
2023/05/22 15:46:02;;;;;;;20.10;13.20;;;;;;;25.81;100.00;101333.94;10394016;28;20093;-73
2023/05/22 15:51:05;;;;;;;20.20;12.85;;;;;;;25.26;100.00;101350.00;10374297;28;20053;-71
2023/05/22 15:56:05;;;;;;;18.10;13.18;;;;;;;24.25;100.00;101365.53;10392232;28;20048;-73
2023/05/22 16:01:06;;;;;;;16.33;12.18;;;;;;;23.76;100.00;101370.56;10390230;28;20041;-71
2023/05/22 16:06:07;;;;;;;16.38;12.27;;;;;;;24.49;100.00;101359.34;10371480;28;20045;-73
2023/05/22 16:11:07;;;;;;;15.13;9.82;;;;;;;24.77;100.00;101356.91;10386381;28;20046;-70
2023/05/22 16:16:08;;;;;;;14.90;10.48;;;;;;;24.71;100.00;101363.91;10365293;28;20076;-74
2023/05/22 16:21:09;;;;;;;12.73;8.95;;;;;;;25.74;100.00;101365.53;10390801;28;20060;-68
2023/05/22 16:26:09;;;;;;;11.10;9.02;;;;;;;26.26;100.00;101353.72;10372356;28;20049;-67
2023/05/22 16:31:11;;;;;;;17.65;9.65;;;;;;;25.15;99.41;101341.91;10388313;28;20659;-68
2023/05/22 16:36:12;;;;;;;13.52;8.65;;;;;;;24.67;100.00;101346.03;10388073;28;20510;-69
2023/05/22 16:41:12;;;;;;;13.48;8.55;;;;;;;25.09;99.95;101363.00;10370987;28;20490;-66
2023/05/22 16:46:13;;;;;;;13.77;8.52;;;;;;;25.74;98.23;101360.72;10391134;28;20132;-65
2023/05/22 16:51:13;;;;;;;14.05;9.00;;;;;;;24.92;96.75;101354.69;10367754;28;20038;-68
2023/05/22 16:56:15;;;;;;;14.30;9.45;;;;;;;23.81;100.00;101376.03;10371205;28;20041;-67
2023/05/22 17:01:16;;;;;;;12.93;8.23;;;;;;;22.75;100.00;101379.81;10366702;28;20053;-69
2023/05/22 17:06:16;;;;;;;14.10;9.05;;;;;;;22.03;100.00;101391.31;10386490;28;20490;-69
2023/05/22 17:11:17;;;;;;;15.75;8.52;;;;;;;21.96;100.00;101398.19;10385907;28;20525;-68
2023/05/22 17:16:17;;;;;;;12.23;8.07;;;;;;;21.77;100.00;101405.97;10392994;28;20037;-66
2023/05/22 17:21:19;;;;;;;11.43;8.02;;;;;;;22.17;100.00;101383.63;10410894;28;20087;-72
2023/05/22 17:26:19;;;;;;;11.35;7.65;;;;;;;21.44;100.00;101422.16;10387702;28;20041;-70
2023/05/22 17:31:21;;;;;;;13.98;8.82;;;;;;;20.56;100.00;101435.06;10427538;28;20505;-70
2023/05/22 17:36:22;;;;;;;11.18;8.70;;;;;;;19.80;100.00;101448.38;10451124;28;20040;-69
2023/05/22 17:41:23;;;;;;;13.60;8.65;;;;;;;18.98;100.00;101459.81;10453571;28;20048;-69
2023/05/22 17:46:23;;;;;;;10.48;8.20;;;;;;;18.43;100.00;101446.13;10452031;28;20077;-69
2023/05/22 17:51:24;;;;;;;11.30;7.80;;;;;;;18.30;100.00;101461.56;10451408;28;20481;-69
2023/05/22 17:56:25;;;;;;;16.00;9.65;;;;;;;17.79;100.00;101482.25;10452050;28;20225;-69
2023/05/22 18:01:27;;;;;;;18.40;11.35;;;;;;;17.41;100.00;101484.69;10434749;28;20489;-70
2023/05/22 18:06:28;;;;;;;19.20;9.27;;;;;;;17.36;100.00;101479.13;10420849;28;20033;-70
2023/05/22 18:11:28;;;;;;;18.50;9.57;;;;;;;17.07;100.00;101482.59;10428903;28;20069;-70
2023/05/22 18:16:29;;;;;;;17.90;9.20;;;;;;;17.01;100.00;101478.19;10399112;28;21081;-70
2023/05/22 18:21:29;;;;;;;19.00;9.68;;;;;;;16.80;100.00;101493.22;10409805;28;20049;-70
2023/05/22 18:26:30;;;;;;;16.92;9.27;;;;;;;16.73;100.00;101493.50;10410407;28;20069;-70
2023/05/22 18:31:31;;;;;;;19.58;10.85;;;;;;;16.36;100.00;101493.81;10410331;28;20041;-70
2023/05/22 18:36:32;;;;;;;17.27;9.27;;;;;;;16.25;100.00;101485.50;10417868;28;20057;-71
2023/05/22 18:41:35;;;;;;;15.15;8.52;;;;;;;16.20;100.00;101490.19;10452464;28;20041;-71
2023/05/22 18:46:35;;;;;;;13.70;7.50;;;;;;;16.11;100.00;101492.72;10434368;28;20410;-72
2023/05/22 18:51:35;;;;;;;13.82;7.32;;;;;;;16.05;100.00;101483.53;10416860;28;20061;-70
2023/05/22 18:56:37;;;;;;;15.77;7.60;;;;;;;16.04;100.00;101484.66;10450869;28;20037;-70
2023/05/22 19:01:37;;;;;;;16.50;7.63;;;;;;;16.03;100.00;101480.19;10408750;28;20041;-72
2023/05/22 19:06:40;;;;;;;12.25;7.10;;;;;;;15.73;100.00;101503.19;10386610;28;20044;-73
2023/05/22 19:11:41;;;;;;;10.80;7.80;;;;;;;15.66;100.00;101503.41;10429262;28;20037;-70
2023/05/22 19:16:42;;;;;;;10.18;6.28;;;;;;;15.61;100.00;101499.81;10459590;28;20028;-71
2023/05/22 19:21:42;;;;;;;10.23;6.20;;;;;;;15.64;100.00;101496.47;10440750;28;20037;-71
2023/05/22 19:26:43;;;;;;;8.77;5.38;;;;;;;15.61;100.00;101497.03;10405972;28;20056;-70
2023/05/22 19:31:43;;;;;;;8.50;5.20;;;;;;;15.66;100.00;101508.13;10434735;28;20044;-70
2023/05/22 19:36:43;;;;;;;14.25;5.80;;;;;;;15.34;100.00;101498.03;10422807;28;20025;-71
2023/05/22 19:41:46;;;;;;;8.98;5.40;;;;;;;15.45;100.00;101513.63;10456860;28;20072;-71
2023/05/22 19:46:46;;;;;;;9.25;5.93;;;;;;;15.46;100.00;101525.53;10455946;28;20045;-71
2023/05/22 19:51:47;;;;;;;7.30;5.60;;;;;;;15.29;100.00;101511.88;10422763;28;20601;-70
2023/05/22 19:56:47;;;;;;;9.60;6.03;;;;;;;15.34;100.00;101545.22;10439296;28;20079;-70
2023/05/22 20:01:48;;;;;;;11.57;7.03;;;;;;;15.29;100.00;101536.84;10428619;28;20046;-70
2023/05/22 20:06:49;;;;;;;11.43;6.78;;;;;;;15.25;100.00;101533.75;10413529;28;20216;-70
2023/05/22 20:11:50;;;;;;;12.85;7.95;;;;;;;15.22;100.00;101536.25;10388823;28;20049;-71
2023/05/22 20:16:50;;;;;;;12.90;8.10;;;;;;;15.15;100.00;101533.72;10372786;28;20065;-69
2023/05/22 20:21:51;;;;;;;12.95;8.48;;;;;;;15.01;100.00;101524.22;10366820;28;20030;-70
2023/05/22 20:26:51;;;;;;;10.35;7.38;;;;;;;14.99;100.00;101518.94;10356734;28;20030;-70
2023/05/22 20:31:53;;;;;;;11.88;7.50;;;;;;;15.10;100.00;101517.88;10379182;28;20030;-70
2023/05/22 20:36:54;;;;;;;12.70;7.45;;;;;;;15.17;100.00;101527.91;10396955;28;20034;-70
2023/05/22 20:41:54;;;;;;;10.00;7.45;;;;;;;15.15;100.00;101519.84;10412915;28;20046;-70
2023/05/22 20:46:55;;;;;;;10.32;6.65;;;;;;;15.08;100.00;101531.19;10413034;28;20045;-70
2023/05/22 20:51:58;;;;;;;16.88;10.55;;;;;;;15.09;100.00;101516.22;10395692;28;20037;-70
2023/05/22 20:57:00;;;;;;;15.82;9.15;;;;;;;15.06;100.00;101513.16;10396222;28;20040;-70
2023/05/22 21:02:00;;;;;;;13.13;8.30;;;;;;;14.63;100.00;101463.25;10399219;28;20076;-70
2023/05/22 21:07:02;;;;;;;14.27;9.50;;;;;;;15.01;100.00;101529.78;10397864;28;20038;-70
2023/05/22 21:12:02;;;;;;;14.27;9.15;;;;;;;14.87;100.00;101537.72;10391974;28;20038;-70
2023/05/22 21:17:03;;;;;;;18.98;9.63;;;;;;;14.62;100.00;101530.88;10392175;28;20098;-70
2023/05/22 21:22:03;;;;;;;16.40;10.38;;;;;;;14.58;100.00;101532.53;10408057;28;20056;-70
2023/05/22 21:27:04;;;;;;;16.33;10.20;;;;;;;14.39;100.00;101550.63;10410446;28;20623;-70
2023/05/22 21:32:05;;;;;;;19.92;10.70;;;;;;;14.30;100.00;101542.78;10390636;28;20033;-70
2023/05/22 21:37:06;;;;;;;22.90;13.27;;;;;;;14.23;100.00;101542.16;10391442;28;20063;-70
2023/05/22 21:42:07;;;;;;;19.67;11.68;;;;;;;14.15;100.00;101550.13;10375780;28;20061;-69
2023/05/22 21:47:09;;;;;;;23.02;14.70;;;;;;;14.06;100.00;101547.00;10409678;28;20406;-70
2023/05/22 21:52:10;;;;;;;27.85;14.55;;;;;;;14.03;100.00;101540.03;10409633;28;20045;-70
2023/05/22 21:57:10;;;;;;;24.83;12.02;;;;;;;13.89;100.00;101547.06;10411367;28;20053;-70
2023/05/22 22:02:11;;;;;;;24.60;11.63;;;;;;;13.88;100.00;101551.78;10392953;28;20044;-70
2023/05/22 22:07:12;;;;;;;23.05;12.02;;;;;;;13.64;100.00;101533.78;10411572;28;20038;-70
2023/05/22 22:12:12;;;;;;;24.73;12.85;;;;;;;13.70;100.00;101541.03;10366607;28;20034;-70
2023/05/22 22:17:15;;;;;;;21.13;13.75;;;;;;;13.69;100.00;101539.38;10387610;28;20084;-70
2023/05/22 22:22:15;;;;;;;24.63;14.50;;;;;;;13.73;100.00;101551.63;10392842;28;20055;-70